sensor_id;sensor_type;location;lat;lon;timestamp;P1;durP1;ratioP1;P2;durP2;ratioP2
30233;SDS011;17046;52.074;4.748;2022-09-27T00:01:33;7.23;;;0.87;;
30233;SDS011;17046;52.074;4.748;2022-09-27T00:03:58;9.40;;;0.90;;
30233;SDS011;17046;52.074;4.748;2022-09-27T00:06:25;14.10;;;1.40;;
30233;SDS011;17046;52.074;4.748;2022-09-27T00:08:53;7.67;;;1.17;;
30233;SDS011;17046;52.074;4.748;2022-09-27T00:11:24;7.97;;;0.80;;
30233;SDS011;17046;52.074;4.748;2022-09-27T00:13:53;8.73;;;0.90;;
30233;SDS011;17046;52.074;4.748;2022-09-27T00:16:21;7.37;;;0.97;;
30233;SDS011;17046;52.074;4.748;2022-09-27T00:18:47;7.23;;;0.83;;
30233;SDS011;17046;52.074;4.748;2022-09-27T00:21:12;7.80;;;0.77;;
30233;SDS011;17046;52.074;4.748;2022-09-27T00:23:39;6.83;;;0.80;;
30233;SDS011;17046;52.074;4.748;2022-09-27T00:26:04;8.70;;;1.47;;
30233;SDS011;17046;52.074;4.748;2022-09-27T00:28:31;8.20;;;1.07;;
30233;SDS011;17046;52.074;4.748;2022-09-27T00:30:57;9.30;;;0.97;;
30233;SDS011;17046;52.074;4.748;2022-09-27T00:33:24;8.63;;;0.93;;
30233;SDS011;17046;52.074;4.748;2022-09-27T00:35:50;4.77;;;0.97;;
30233;SDS011;17046;52.074;4.748;2022-09-27T00:38:15;11.53;;;1.13;;
30233;SDS011;17046;52.074;4.748;2022-09-27T00:40:41;7.87;;;1.33;;
30233;SDS011;17046;52.074;4.748;2022-09-27T00:43:10;11.00;;;1.13;;
30233;SDS011;17046;52.074;4.748;2022-09-27T00:45:40;10.93;;;1.47;;
30233;SDS011;17046;52.074;4.748;2022-09-27T00:48:09;10.50;;;2.10;;
30233;SDS011;17046;52.074;4.748;2022-09-27T00:50:40;10.60;;;1.60;;
30233;SDS011;17046;52.074;4.748;2022-09-27T00:53:28;12.37;;;1.27;;
30233;SDS011;17046;52.074;4.748;2022-09-27T00:56:02;10.93;;;1.30;;
30233;SDS011;17046;52.074;4.748;2022-09-27T00:58:35;7.17;;;1.10;;
30233;SDS011;17046;52.074;4.748;2022-09-27T01:01:05;10.30;;;1.60;;
30233;SDS011;17046;52.074;4.748;2022-09-27T01:03:50;8.80;;;1.00;;
30233;SDS011;17046;52.074;4.748;2022-09-27T01:06:23;7.57;;;1.17;;
30233;SDS011;17046;52.074;4.748;2022-09-27T01:08:49;8.57;;;1.23;;
30233;SDS011;17046;52.074;4.748;2022-09-27T01:11:31;8.03;;;1.00;;
30233;SDS011;17046;52.074;4.748;2022-09-27T01:23:11;7.20;;;1.20;;
30233;SDS011;17046;52.074;4.748;2022-09-27T01:29:01;7.53;;;1.17;;
30233;SDS011;17046;52.074;4.748;2022-09-27T01:32:49;12.50;;;1.30;;
30233;SDS011;17046;52.074;4.748;2022-09-27T01:35:06;10.87;;;1.37;;
30233;SDS011;17046;52.074;4.748;2022-09-27T01:37:49;11.30;;;1.83;;
30233;SDS011;17046;52.074;4.748;2022-09-27T01:43:23;10.70;;;1.67;;
30233;SDS011;17046;52.074;4.748;2022-09-27T01:46:14;11.17;;;1.33;;
30233;SDS011;17046;52.074;4.748;2022-09-27T01:48:46;11.17;;;1.50;;
30233;SDS011;17046;52.074;4.748;2022-09-27T01:51:18;18.67;;;1.93;;
30233;SDS011;17046;52.074;4.748;2022-09-27T01:53:47;11.13;;;1.63;;
30233;SDS011;17046;52.074;4.748;2022-09-27T01:56:17;10.67;;;1.40;;
30233;SDS011;17046;52.074;4.748;2022-09-27T01:59:02;7.37;;;1.73;;
30233;SDS011;17046;52.074;4.748;2022-09-27T02:01:37;12.07;;;1.23;;
30233;SDS011;17046;52.074;4.748;2022-09-27T02:04:06;13.50;;;2.03;;
30233;SDS011;17046;52.074;4.748;2022-09-27T02:06:37;5.87;;;1.13;;
30233;SDS011;17046;52.074;4.748;2022-09-27T02:09:13;7.77;;;1.27;;
30233;SDS011;17046;52.074;4.748;2022-09-27T02:11:44;14.03;;;1.47;;
30233;SDS011;17046;52.074;4.748;2022-09-27T02:14:47;12.47;;;1.57;;
30233;SDS011;17046;52.074;4.748;2022-09-27T02:17:20;6.70;;;1.10;;
30233;SDS011;17046;52.074;4.748;2022-09-27T02:22:35;13.03;;;1.33;;
30233;SDS011;17046;52.074;4.748;2022-09-27T02:25:10;11.97;;;1.80;;
30233;SDS011;17046;52.074;4.748;2022-09-27T02:27:52;8.50;;;1.23;;
30233;SDS011;17046;52.074;4.748;2022-09-27T02:30:31;15.10;;;1.63;;
30233;SDS011;17046;52.074;4.748;2022-09-27T02:32:57;10.03;;;1.20;;
30233;SDS011;17046;52.074;4.748;2022-09-27T02:35:26;9.93;;;1.60;;
30233;SDS011;17046;52.074;4.748;2022-09-27T02:37:55;12.97;;;1.67;;
30233;SDS011;17046;52.074;4.748;2022-09-27T02:40:22;13.77;;;1.57;;
30233;SDS011;17046;52.074;4.748;2022-09-27T02:42:50;7.17;;;1.40;;
30233;SDS011;17046;52.074;4.748;2022-09-27T02:45:17;8.87;;;1.27;;
30233;SDS011;17046;52.074;4.748;2022-09-27T02:53:24;6.13;;;0.90;;
30233;SDS011;17046;52.074;4.748;2022-09-27T02:56:02;5.20;;;0.57;;
30233;SDS011;17046;52.074;4.748;2022-09-27T02:59:38;7.13;;;0.70;;
30233;SDS011;17046;52.074;4.748;2022-09-27T03:04:34;5.00;;;0.70;;
30233;SDS011;17046;52.074;4.748;2022-09-27T03:07:07;4.53;;;0.70;;
30233;SDS011;17046;52.074;4.748;2022-09-27T03:09:41;4.17;;;0.57;;
30233;SDS011;17046;52.074;4.748;2022-09-27T03:12:09;3.67;;;0.60;;
30233;SDS011;17046;52.074;4.748;2022-09-27T03:14:34;4.60;;;0.47;;
30233;SDS011;17046;52.074;4.748;2022-09-27T03:17:00;2.17;;;0.30;;
30233;SDS011;17046;52.074;4.748;2022-09-27T03:19:26;7.90;;;0.57;;
30233;SDS011;17046;52.074;4.748;2022-09-27T03:21:52;4.60;;;0.50;;
30233;SDS011;17046;52.074;4.748;2022-09-27T03:24:17;3.50;;;0.60;;
30233;SDS011;17046;52.074;4.748;2022-09-27T03:26:43;3.87;;;0.40;;
30233;SDS011;17046;52.074;4.748;2022-09-27T03:29:09;2.67;;;0.60;;
30233;SDS011;17046;52.074;4.748;2022-09-27T03:31:35;3.60;;;0.40;;
30233;SDS011;17046;52.074;4.748;2022-09-27T03:34:00;3.13;;;0.50;;
30233;SDS011;17046;52.074;4.748;2022-09-27T03:36:26;4.10;;;0.70;;
30233;SDS011;17046;52.074;4.748;2022-09-27T03:38:52;5.27;;;0.60;;
30233;SDS011;17046;52.074;4.748;2022-09-27T03:41:17;4.00;;;0.67;;
30233;SDS011;17046;52.074;4.748;2022-09-27T03:43:43;3.67;;;0.70;;
30233;SDS011;17046;52.074;4.748;2022-09-27T03:46:09;8.50;;;0.90;;
30233;SDS011;17046;52.074;4.748;2022-09-27T03:48:35;6.07;;;0.90;;
30233;SDS011;17046;52.074;4.748;2022-09-27T03:51:00;7.93;;;0.93;;
30233;SDS011;17046;52.074;4.748;2022-09-27T03:53:26;5.13;;;0.87;;
30233;SDS011;17046;52.074;4.748;2022-09-27T03:55:51;2.73;;;0.73;;
30233;SDS011;17046;52.074;4.748;2022-09-27T03:58:17;9.90;;;1.20;;
30233;SDS011;17046;52.074;4.748;2022-09-27T04:00:44;7.43;;;1.10;;
30233;SDS011;17046;52.074;4.748;2022-09-27T04:03:10;10.17;;;1.10;;
30233;SDS011;17046;52.074;4.748;2022-09-27T04:05:36;6.90;;;1.00;;
30233;SDS011;17046;52.074;4.748;2022-09-27T04:08:01;11.40;;;1.43;;
30233;SDS011;17046;52.074;4.748;2022-09-27T04:10:27;6.50;;;0.83;;
30233;SDS011;17046;52.074;4.748;2022-09-27T04:12:53;7.63;;;1.00;;
30233;SDS011;17046;52.074;4.748;2022-09-27T04:15:18;5.00;;;1.00;;
30233;SDS011;17046;52.074;4.748;2022-09-27T04:17:45;7.97;;;1.10;;
30233;SDS011;17046;52.074;4.748;2022-09-27T04:20:10;7.70;;;1.17;;
30233;SDS011;17046;52.074;4.748;2022-09-27T04:22:39;9.93;;;1.13;;
30233;SDS011;17046;52.074;4.748;2022-09-27T04:25:07;7.97;;;1.30;;
30233;SDS011;17046;52.074;4.748;2022-09-27T04:27:33;9.67;;;1.00;;
30233;SDS011;17046;52.074;4.748;2022-09-27T04:29:59;6.53;;;0.70;;
30233;SDS011;17046;52.074;4.748;2022-09-27T04:32:24;6.20;;;0.87;;
30233;SDS011;17046;52.074;4.748;2022-09-27T04:34:50;8.27;;;1.03;;
30233;SDS011;17046;52.074;4.748;2022-09-27T04:37:34;6.60;;;0.90;;
30233;SDS011;17046;52.074;4.748;2022-09-27T04:40:00;6.10;;;0.60;;
30233;SDS011;17046;52.074;4.748;2022-09-27T04:42:27;6.03;;;1.00;;
30233;SDS011;17046;52.074;4.748;2022-09-27T04:44:52;6.53;;;0.80;;
30233;SDS011;17046;52.074;4.748;2022-09-27T04:47:18;4.37;;;0.73;;
30233;SDS011;17046;52.074;4.748;2022-09-27T04:49:45;7.30;;;1.07;;
30233;SDS011;17046;52.074;4.748;2022-09-27T04:52:11;11.57;;;1.03;;
30233;SDS011;17046;52.074;4.748;2022-09-27T04:54:37;9.57;;;1.50;;
30233;SDS011;17046;52.074;4.748;2022-09-27T04:57:02;7.50;;;1.37;;
30233;SDS011;17046;52.074;4.748;2022-09-27T04:59:28;10.93;;;1.50;;
30233;SDS011;17046;52.074;4.748;2022-09-27T05:01:53;11.97;;;1.40;;
30233;SDS011;17046;52.074;4.748;2022-09-27T05:04:19;7.87;;;1.10;;
30233;SDS011;17046;52.074;4.748;2022-09-27T05:06:45;7.80;;;1.30;;
30233;SDS011;17046;52.074;4.748;2022-09-27T05:09:11;10.43;;;1.13;;
30233;SDS011;17046;52.074;4.748;2022-09-27T05:11:36;7.43;;;1.13;;
30233;SDS011;17046;52.074;4.748;2022-09-27T05:14:02;6.90;;;1.00;;
30233;SDS011;17046;52.074;4.748;2022-09-27T05:16:29;4.07;;;1.10;;
30233;SDS011;17046;52.074;4.748;2022-09-27T05:18:54;6.13;;;1.00;;
30233;SDS011;17046;52.074;4.748;2022-09-27T05:21:21;7.23;;;1.10;;
30233;SDS011;17046;52.074;4.748;2022-09-27T05:23:47;4.50;;;0.87;;
30233;SDS011;17046;52.074;4.748;2022-09-27T05:26:12;3.90;;;0.73;;
30233;SDS011;17046;52.074;4.748;2022-09-27T05:28:38;7.23;;;1.10;;
30233;SDS011;17046;52.074;4.748;2022-09-27T05:31:05;7.70;;;0.80;;
30233;SDS011;17046;52.074;4.748;2022-09-27T05:33:31;7.20;;;1.10;;
30233;SDS011;17046;52.074;4.748;2022-09-27T05:35:58;8.00;;;1.17;;
30233;SDS011;17046;52.074;4.748;2022-09-27T05:38:23;4.83;;;1.40;;
30233;SDS011;17046;52.074;4.748;2022-09-27T05:40:49;7.27;;;1.30;;
30233;SDS011;17046;52.074;4.748;2022-09-27T05:43:16;3.60;;;0.90;;
30233;SDS011;17046;52.074;4.748;2022-09-27T05:45:42;5.50;;;1.50;;
30233;SDS011;17046;52.074;4.748;2022-09-27T05:48:08;6.63;;;1.80;;
30233;SDS011;17046;52.074;4.748;2022-09-27T05:50:36;4.07;;;1.40;;
30233;SDS011;17046;52.074;4.748;2022-09-27T05:53:02;6.20;;;1.23;;
30233;SDS011;17046;52.074;4.748;2022-09-27T05:55:28;10.50;;;1.20;;
30233;SDS011;17046;52.074;4.748;2022-09-27T05:58:01;7.10;;;1.27;;
30233;SDS011;17046;52.074;4.748;2022-09-27T06:00:30;8.70;;;1.00;;
30233;SDS011;17046;52.074;4.748;2022-09-27T06:03:00;8.97;;;1.07;;
30233;SDS011;17046;52.074;4.748;2022-09-27T06:05:30;7.80;;;1.03;;
30233;SDS011;17046;52.074;4.748;2022-09-27T06:07:59;9.23;;;3.63;;
30233;SDS011;17046;52.074;4.748;2022-09-27T06:10:27;10.20;;;1.33;;
30233;SDS011;17046;52.074;4.748;2022-09-27T06:12:57;9.17;;;1.47;;
30233;SDS011;17046;52.074;4.748;2022-09-27T06:15:27;6.10;;;1.10;;
30233;SDS011;17046;52.074;4.748;2022-09-27T06:17:53;7.23;;;1.47;;
30233;SDS011;17046;52.074;4.748;2022-09-27T06:20:19;7.40;;;1.20;;
30233;SDS011;17046;52.074;4.748;2022-09-27T06:22:45;5.67;;;1.20;;
30233;SDS011;17046;52.074;4.748;2022-09-27T06:25:11;7.80;;;1.20;;
30233;SDS011;17046;52.074;4.748;2022-09-27T06:27:37;4.93;;;0.90;;
30233;SDS011;17046;52.074;4.748;2022-09-27T06:30:03;8.13;;;1.23;;
30233;SDS011;17046;52.074;4.748;2022-09-27T06:32:29;4.27;;;1.37;;
30233;SDS011;17046;52.074;4.748;2022-09-27T06:34:55;8.10;;;1.10;;
30233;SDS011;17046;52.074;4.748;2022-09-27T06:37:24;9.50;;;1.57;;
30233;SDS011;17046;52.074;4.748;2022-09-27T06:39:51;8.70;;;1.27;;
30233;SDS011;17046;52.074;4.748;2022-09-27T06:42:17;7.43;;;1.43;;
30233;SDS011;17046;52.074;4.748;2022-09-27T06:44:43;9.27;;;0.90;;
30233;SDS011;17046;52.074;4.748;2022-09-27T06:47:14;8.23;;;1.27;;
30233;SDS011;17046;52.074;4.748;2022-09-27T06:49:43;4.97;;;0.80;;
30233;SDS011;17046;52.074;4.748;2022-09-27T06:52:08;10.67;;;1.27;;
30233;SDS011;17046;52.074;4.748;2022-09-27T06:54:34;7.17;;;1.63;;
30233;SDS011;17046;52.074;4.748;2022-09-27T06:57:00;8.83;;;1.27;;
30233;SDS011;17046;52.074;4.748;2022-09-27T06:59:25;2.97;;;0.93;;
30233;SDS011;17046;52.074;4.748;2022-09-27T07:02:09;7.37;;;1.40;;
30233;SDS011;17046;52.074;4.748;2022-09-27T07:04:36;5.87;;;1.07;;
30233;SDS011;17046;52.074;4.748;2022-09-27T07:07:01;6.47;;;1.53;;
30233;SDS011;17046;52.074;4.748;2022-09-27T07:09:27;9.83;;;1.13;;
30233;SDS011;17046;52.074;4.748;2022-09-27T07:11:52;10.23;;;1.43;;
30233;SDS011;17046;52.074;4.748;2022-09-27T07:14:19;5.77;;;1.57;;
30233;SDS011;17046;52.074;4.748;2022-09-27T07:16:45;7.40;;;1.00;;
30233;SDS011;17046;52.074;4.748;2022-09-27T07:19:11;8.20;;;1.90;;
30233;SDS011;17046;52.074;4.748;2022-09-27T07:21:38;3.23;;;1.00;;
30233;SDS011;17046;52.074;4.748;2022-09-27T07:24:04;4.90;;;0.90;;
30233;SDS011;17046;52.074;4.748;2022-09-27T07:26:29;2.67;;;0.90;;
30233;SDS011;17046;52.074;4.748;2022-09-27T07:28:55;6.40;;;1.23;;
30233;SDS011;17046;52.074;4.748;2022-09-27T07:31:21;6.63;;;1.10;;
30233;SDS011;17046;52.074;4.748;2022-09-27T07:33:48;5.70;;;0.90;;
30233;SDS011;17046;52.074;4.748;2022-09-27T07:36:13;10.60;;;1.90;;
30233;SDS011;17046;52.074;4.748;2022-09-27T07:38:39;5.03;;;1.00;;
30233;SDS011;17046;52.074;4.748;2022-09-27T07:41:09;6.57;;;0.90;;
30233;SDS011;17046;52.074;4.748;2022-09-27T07:43:37;6.77;;;0.70;;
30233;SDS011;17046;52.074;4.748;2022-09-27T07:46:02;5.03;;;0.67;;
30233;SDS011;17046;52.074;4.748;2022-09-27T07:48:28;1.37;;;0.50;;
30233;SDS011;17046;52.074;4.748;2022-09-27T07:50:53;4.33;;;0.50;;
30233;SDS011;17046;52.074;4.748;2022-09-27T07:53:19;6.73;;;0.83;;
30233;SDS011;17046;52.074;4.748;2022-09-27T07:55:48;3.83;;;0.73;;
30233;SDS011;17046;52.074;4.748;2022-09-27T07:58:17;6.47;;;1.47;;
30233;SDS011;17046;52.074;4.748;2022-09-27T08:00:43;5.67;;;1.07;;
30233;SDS011;17046;52.074;4.748;2022-09-27T08:03:09;3.67;;;1.00;;
30233;SDS011;17046;52.074;4.748;2022-09-27T08:05:39;4.97;;;1.20;;
30233;SDS011;17046;52.074;4.748;2022-09-27T08:08:05;4.47;;;0.90;;
30233;SDS011;17046;52.074;4.748;2022-09-27T08:10:30;5.10;;;0.90;;
30233;SDS011;17046;52.074;4.748;2022-09-27T08:12:57;3.90;;;0.80;;
30233;SDS011;17046;52.074;4.748;2022-09-27T08:15:25;3.67;;;1.13;;
30233;SDS011;17046;52.074;4.748;2022-09-27T08:17:52;5.67;;;1.33;;
30233;SDS011;17046;52.074;4.748;2022-09-27T08:20:18;6.10;;;1.00;;
30233;SDS011;17046;52.074;4.748;2022-09-27T08:22:44;4.80;;;0.97;;
30233;SDS011;17046;52.074;4.748;2022-09-27T08:25:09;7.20;;;1.30;;
30233;SDS011;17046;52.074;4.748;2022-09-27T08:27:35;3.70;;;0.70;;
30233;SDS011;17046;52.074;4.748;2022-09-27T08:30:01;2.40;;;0.60;;
30233;SDS011;17046;52.074;4.748;2022-09-27T08:32:27;3.37;;;0.60;;
30233;SDS011;17046;52.074;4.748;2022-09-27T08:34:54;4.27;;;0.87;;
30233;SDS011;17046;52.074;4.748;2022-09-27T08:37:20;6.33;;;1.00;;
30233;SDS011;17046;52.074;4.748;2022-09-27T08:39:46;4.97;;;0.70;;
30233;SDS011;17046;52.074;4.748;2022-09-27T08:42:14;3.87;;;0.60;;
30233;SDS011;17046;52.074;4.748;2022-09-27T08:45:02;6.33;;;1.33;;
30233;SDS011;17046;52.074;4.748;2022-09-27T08:47:42;6.77;;;0.93;;
30233;SDS011;17046;52.074;4.748;2022-09-27T08:52:41;6.10;;;1.30;;
30233;SDS011;17046;52.074;4.748;2022-09-27T08:55:24;5.27;;;0.90;;
30233;SDS011;17046;52.074;4.748;2022-09-27T08:57:56;3.77;;;0.80;;
30233;SDS011;17046;52.074;4.748;2022-09-27T09:00:23;1.50;;;0.40;;
30233;SDS011;17046;52.074;4.748;2022-09-27T09:02:49;5.43;;;1.10;;
30233;SDS011;17046;52.074;4.748;2022-09-27T09:14:42;8.70;;;2.07;;
30233;SDS011;17046;52.074;4.748;2022-09-27T09:23:53;7.03;;;0.80;;
30233;SDS011;17046;52.074;4.748;2022-09-27T09:25:52;9.23;;;1.10;;
30233;SDS011;17046;52.074;4.748;2022-09-27T09:34:18;7.07;;;0.97;;
30233;SDS011;17046;52.074;4.748;2022-09-27T09:37:01;6.77;;;1.30;;
30233;SDS011;17046;52.074;4.748;2022-09-27T09:50:17;8.33;;;1.20;;
30233;SDS011;17046;52.074;4.748;2022-09-27T09:52:50;6.77;;;1.03;;
30233;SDS011;17046;52.074;4.748;2022-09-27T09:55:22;7.20;;;1.03;;
30233;SDS011;17046;52.074;4.748;2022-09-27T09:58:03;7.10;;;1.00;;
30233;SDS011;17046;52.074;4.748;2022-09-27T10:00:43;4.60;;;0.90;;
30233;SDS011;17046;52.074;4.748;2022-09-27T10:03:11;7.37;;;1.07;;
30233;SDS011;17046;52.074;4.748;2022-09-27T10:05:37;6.90;;;1.10;;
30233;SDS011;17046;52.074;4.748;2022-09-27T10:08:03;10.90;;;1.10;;
30233;SDS011;17046;52.074;4.748;2022-09-27T10:10:32;4.47;;;1.07;;
30233;SDS011;17046;52.074;4.748;2022-09-27T10:12:58;5.80;;;1.03;;
30233;SDS011;17046;52.074;4.748;2022-09-27T10:15:28;6.10;;;1.10;;
30233;SDS011;17046;52.074;4.748;2022-09-27T10:17:55;6.83;;;1.10;;
30233;SDS011;17046;52.074;4.748;2022-09-27T10:22:56;4.13;;;1.00;;
30233;SDS011;17046;52.074;4.748;2022-09-27T10:25:44;5.73;;;0.93;;
30233;SDS011;17046;52.074;4.748;2022-09-27T10:28:24;5.93;;;1.17;;
30233;SDS011;17046;52.074;4.748;2022-09-27T10:30:56;5.47;;;1.07;;
30233;SDS011;17046;52.074;4.748;2022-09-27T10:33:27;5.27;;;0.90;;
30233;SDS011;17046;52.074;4.748;2022-09-27T10:35:55;3.07;;;0.73;;
30233;SDS011;17046;52.074;4.748;2022-09-27T10:38:22;3.50;;;0.93;;
30233;SDS011;17046;52.074;4.748;2022-09-27T10:40:51;4.13;;;1.00;;
30233;SDS011;17046;52.074;4.748;2022-09-27T10:43:23;4.07;;;1.00;;
30233;SDS011;17046;52.074;4.748;2022-09-27T10:46:04;2.80;;;0.80;;
30233;SDS011;17046;52.074;4.748;2022-09-27T10:48:34;3.50;;;0.83;;
30233;SDS011;17046;52.074;4.748;2022-09-27T10:51:03;5.40;;;1.13;;
30233;SDS011;17046;52.074;4.748;2022-09-27T10:53:30;5.30;;;1.10;;
30233;SDS011;17046;52.074;4.748;2022-09-27T10:55:58;6.50;;;0.90;;
30233;SDS011;17046;52.074;4.748;2022-09-27T10:58:29;4.43;;;1.03;;
30233;SDS011;17046;52.074;4.748;2022-09-27T11:01:04;5.53;;;0.90;;
30233;SDS011;17046;52.074;4.748;2022-09-27T11:03:36;8.13;;;1.57;;
30233;SDS011;17046;52.074;4.748;2022-09-27T11:08:48;4.27;;;1.10;;
30233;SDS011;17046;52.074;4.748;2022-09-27T11:11:17;3.57;;;1.07;;
30233;SDS011;17046;52.074;4.748;2022-09-27T11:14:03;6.17;;;1.10;;
30233;SDS011;17046;52.074;4.748;2022-09-27T11:28:00;3.07;;;0.60;;
30233;SDS011;17046;52.074;4.748;2022-09-27T11:30:44;3.10;;;0.90;;
30233;SDS011;17046;52.074;4.748;2022-09-27T11:50:49;2.73;;;0.80;;
30233;SDS011;17046;52.074;4.748;2022-09-27T11:53:28;3.40;;;0.77;;
30233;SDS011;17046;52.074;4.748;2022-09-27T12:04:09;4.03;;;0.80;;
30233;SDS011;17046;52.074;4.748;2022-09-27T12:07:21;3.00;;;0.50;;
30233;SDS011;17046;52.074;4.748;2022-09-27T12:10:11;2.87;;;0.70;;
30233;SDS011;17046;52.074;4.748;2022-09-27T12:12:41;3.40;;;0.77;;
30233;SDS011;17046;52.074;4.748;2022-09-27T12:15:16;2.87;;;0.40;;
30233;SDS011;17046;52.074;4.748;2022-09-27T12:17:45;4.80;;;0.47;;
30233;SDS011;17046;52.074;4.748;2022-09-27T12:25:20;2.80;;;0.80;;
30233;SDS011;17046;52.074;4.748;2022-09-27T12:27:51;2.30;;;0.50;;
30233;SDS011;17046;52.074;4.748;2022-09-27T12:30:22;1.63;;;0.50;;
30233;SDS011;17046;52.074;4.748;2022-09-27T12:33:04;2.13;;;0.47;;
30233;SDS011;17046;52.074;4.748;2022-09-27T12:35:42;2.60;;;0.70;;
30233;SDS011;17046;52.074;4.748;2022-09-27T12:38:27;1.73;;;0.50;;
30233;SDS011;17046;52.074;4.748;2022-09-27T12:41:00;2.33;;;0.50;;
30233;SDS011;17046;52.074;4.748;2022-09-27T12:43:29;2.40;;;0.60;;
30233;SDS011;17046;52.074;4.748;2022-09-27T12:48:32;3.27;;;0.50;;
30233;SDS011;17046;52.074;4.748;2022-09-27T13:13:33;7.80;;;3.30;;
30233;SDS011;17046;52.074;4.748;2022-09-27T13:16:02;3.80;;;0.90;;
30233;SDS011;17046;52.074;4.748;2022-09-27T13:18:30;2.07;;;0.83;;
30233;SDS011;17046;52.074;4.748;2022-09-27T13:20:59;4.30;;;0.90;;
30233;SDS011;17046;52.074;4.748;2022-09-27T13:26:41;2.93;;;0.97;;
30233;SDS011;17046;52.074;4.748;2022-09-27T13:29:41;2.67;;;0.97;;
30233;SDS011;17046;52.074;4.748;2022-09-27T13:32:00;6.57;;;1.20;;
30233;SDS011;17046;52.074;4.748;2022-09-27T13:45:35;3.43;;;1.20;;
30233;SDS011;17046;52.074;4.748;2022-09-27T13:48:14;5.13;;;1.13;;
30233;SDS011;17046;52.074;4.748;2022-09-27T13:53:34;3.40;;;1.20;;
30233;SDS011;17046;52.074;4.748;2022-09-27T13:56:03;5.10;;;1.40;;
30233;SDS011;17046;52.074;4.748;2022-09-27T13:58:46;5.37;;;1.27;;
30233;SDS011;17046;52.074;4.748;2022-09-27T14:01:21;6.67;;;1.30;;
30233;SDS011;17046;52.074;4.748;2022-09-27T14:03:59;3.60;;;1.00;;
30233;SDS011;17046;52.074;4.748;2022-09-27T14:06:44;5.87;;;1.20;;
30233;SDS011;17046;52.074;4.748;2022-09-27T14:09:18;6.30;;;1.03;;
30233;SDS011;17046;52.074;4.748;2022-09-27T14:11:48;5.33;;;1.20;;
30233;SDS011;17046;52.074;4.748;2022-09-27T14:14:18;3.60;;;0.97;;
30233;SDS011;17046;52.074;4.748;2022-09-27T14:16:47;6.37;;;1.50;;
30233;SDS011;17046;52.074;4.748;2022-09-27T14:19:14;6.47;;;1.00;;
30233;SDS011;17046;52.074;4.748;2022-09-27T14:21:44;4.00;;;1.10;;
30233;SDS011;17046;52.074;4.748;2022-09-27T14:27:08;7.43;;;1.70;;
30233;SDS011;17046;52.074;4.748;2022-09-27T14:29:40;7.50;;;1.37;;
30233;SDS011;17046;52.074;4.748;2022-09-27T14:32:10;8.13;;;1.83;;
30233;SDS011;17046;52.074;4.748;2022-09-27T14:34:37;5.50;;;1.30;;
30233;SDS011;17046;52.074;4.748;2022-09-27T14:37:03;5.17;;;1.23;;
30233;SDS011;17046;52.074;4.748;2022-09-27T14:40:01;4.80;;;1.10;;
30233;SDS011;17046;52.074;4.748;2022-09-27T14:42:35;6.80;;;1.40;;
30233;SDS011;17046;52.074;4.748;2022-09-27T14:45:03;5.37;;;1.20;;
30233;SDS011;17046;52.074;4.748;2022-09-27T14:47:50;8.53;;;1.30;;
30233;SDS011;17046;52.074;4.748;2022-09-27T14:50:23;8.47;;;1.93;;
30233;SDS011;17046;52.074;4.748;2022-09-27T14:52:53;6.00;;;2.23;;
30233;SDS011;17046;52.074;4.748;2022-09-27T14:55:23;5.97;;;1.10;;
30233;SDS011;17046;52.074;4.748;2022-09-27T14:57:52;7.93;;;1.53;;
30233;SDS011;17046;52.074;4.748;2022-09-27T15:00:30;4.67;;;1.27;;
30233;SDS011;17046;52.074;4.748;2022-09-27T15:02:59;6.47;;;1.30;;
30233;SDS011;17046;52.074;4.748;2022-09-27T15:05:32;10.40;;;1.43;;
30233;SDS011;17046;52.074;4.748;2022-09-27T15:08:01;6.53;;;1.30;;
30233;SDS011;17046;52.074;4.748;2022-09-27T15:10:29;8.50;;;1.70;;
30233;SDS011;17046;52.074;4.748;2022-09-27T15:12:58;7.43;;;1.50;;
30233;SDS011;17046;52.074;4.748;2022-09-27T15:15:27;4.93;;;1.50;;
30233;SDS011;17046;52.074;4.748;2022-09-27T15:17:56;9.20;;;1.90;;
30233;SDS011;17046;52.074;4.748;2022-09-27T15:20:24;5.17;;;1.37;;
30233;SDS011;17046;52.074;4.748;2022-09-27T15:22:55;6.90;;;1.33;;
30233;SDS011;17046;52.074;4.748;2022-09-27T15:25:24;8.20;;;1.27;;
30233;SDS011;17046;52.074;4.748;2022-09-27T15:28:04;7.43;;;1.30;;
30233;SDS011;17046;52.074;4.748;2022-09-27T15:30:39;6.90;;;1.20;;
30233;SDS011;17046;52.074;4.748;2022-09-27T15:33:06;10.17;;;1.70;;
30233;SDS011;17046;52.074;4.748;2022-09-27T15:35:49;5.73;;;1.50;;
30233;SDS011;17046;52.074;4.748;2022-09-27T15:51:59;9.03;;;1.67;;
30233;SDS011;17046;52.074;4.748;2022-09-27T15:54:27;5.97;;;1.80;;
30233;SDS011;17046;52.074;4.748;2022-09-27T15:56:54;5.23;;;1.57;;
30233;SDS011;17046;52.074;4.748;2022-09-27T15:59:24;7.97;;;1.40;;
30233;SDS011;17046;52.074;4.748;2022-09-27T16:01:58;7.30;;;1.77;;
30233;SDS011;17046;52.074;4.748;2022-09-27T16:04:26;6.47;;;1.50;;
30233;SDS011;17046;52.074;4.748;2022-09-27T16:06:55;5.60;;;1.63;;
30233;SDS011;17046;52.074;4.748;2022-09-27T16:09:24;8.03;;;1.60;;
30233;SDS011;17046;52.074;4.748;2022-09-27T16:11:50;7.43;;;1.50;;
30233;SDS011;17046;52.074;4.748;2022-09-27T16:14:16;11.77;;;1.93;;
30233;SDS011;17046;52.074;4.748;2022-09-27T16:16:44;9.60;;;2.17;;
30233;SDS011;17046;52.074;4.748;2022-09-27T16:19:13;7.07;;;2.17;;
30233;SDS011;17046;52.074;4.748;2022-09-27T16:21:39;6.43;;;1.97;;
30233;SDS011;17046;52.074;4.748;2022-09-27T16:24:07;9.37;;;1.90;;
30233;SDS011;17046;52.074;4.748;2022-09-27T16:26:33;7.17;;;2.03;;
30233;SDS011;17046;52.074;4.748;2022-09-27T16:28:59;9.67;;;2.30;;
30233;SDS011;17046;52.074;4.748;2022-09-27T16:31:24;8.23;;;2.13;;
30233;SDS011;17046;52.074;4.748;2022-09-27T16:33:50;10.63;;;2.30;;
30233;SDS011;17046;52.074;4.748;2022-09-27T16:36:15;7.73;;;2.57;;
30233;SDS011;17046;52.074;4.748;2022-09-27T16:38:47;10.30;;;2.60;;
30233;SDS011;17046;52.074;4.748;2022-09-27T16:41:14;10.60;;;2.63;;
30233;SDS011;17046;52.074;4.748;2022-09-27T16:43:39;9.00;;;2.23;;
30233;SDS011;17046;52.074;4.748;2022-09-27T16:46:05;9.30;;;2.70;;
30233;SDS011;17046;52.074;4.748;2022-09-27T16:48:33;9.30;;;2.97;;
30233;SDS011;17046;52.074;4.748;2022-09-27T16:51:11;8.17;;;2.80;;
30233;SDS011;17046;52.074;4.748;2022-09-27T16:53:58;7.23;;;2.23;;
30233;SDS011;17046;52.074;4.748;2022-09-27T16:56:24;7.87;;;2.23;;
30233;SDS011;17046;52.074;4.748;2022-09-27T16:58:50;7.03;;;2.17;;
30233;SDS011;17046;52.074;4.748;2022-09-27T17:01:16;11.93;;;2.50;;
30233;SDS011;17046;52.074;4.748;2022-09-27T17:03:42;5.03;;;2.23;;
30233;SDS011;17046;52.074;4.748;2022-09-27T17:06:13;9.30;;;2.80;;
30233;SDS011;17046;52.074;4.748;2022-09-27T17:08:39;9.60;;;2.50;;
30233;SDS011;17046;52.074;4.748;2022-09-27T17:11:05;10.07;;;2.47;;
30233;SDS011;17046;52.074;4.748;2022-09-27T17:13:31;7.27;;;2.87;;
30233;SDS011;17046;52.074;4.748;2022-09-27T17:15:57;8.20;;;2.57;;
30233;SDS011;17046;52.074;4.748;2022-09-27T17:18:23;9.50;;;2.80;;
30233;SDS011;17046;52.074;4.748;2022-09-27T17:20:48;6.70;;;2.03;;
30233;SDS011;17046;52.074;4.748;2022-09-27T17:23:14;8.00;;;2.50;;
30233;SDS011;17046;52.074;4.748;2022-09-27T17:25:39;9.37;;;3.00;;
30233;SDS011;17046;52.074;4.748;2022-09-27T17:28:05;6.97;;;2.23;;
30233;SDS011;17046;52.074;4.748;2022-09-27T17:30:31;6.63;;;2.40;;
30233;SDS011;17046;52.074;4.748;2022-09-27T17:32:58;5.50;;;2.50;;
30233;SDS011;17046;52.074;4.748;2022-09-27T17:35:24;5.63;;;2.40;;
30233;SDS011;17046;52.074;4.748;2022-09-27T17:37:50;4.93;;;2.43;;
30233;SDS011;17046;52.074;4.748;2022-09-27T17:40:15;6.27;;;2.37;;
30233;SDS011;17046;52.074;4.748;2022-09-27T17:42:41;9.33;;;2.40;;
30233;SDS011;17046;52.074;4.748;2022-09-27T17:45:07;7.07;;;2.40;;
30233;SDS011;17046;52.074;4.748;2022-09-27T17:47:33;6.83;;;2.07;;
30233;SDS011;17046;52.074;4.748;2022-09-27T17:50:17;4.03;;;1.83;;